createdAt,value
2022-10-04T00:02:04.433Z,7.77
2022-10-04T00:04:48.160Z,7.51
2022-10-04T00:07:41.049Z,7.68
2022-10-04T00:10:22.296Z,7.11
2022-10-04T00:12:59.061Z,7.28
2022-10-04T00:15:30.724Z,7.35
2022-10-04T00:18:23.087Z,7.38
2022-10-04T00:20:55.827Z,7.36
2022-10-04T00:23:38.053Z,7.45
2022-10-04T00:26:12.850Z,7.42
2022-10-04T00:28:43.180Z,7.47
2022-10-04T00:31:27.134Z,7.50
2022-10-04T00:34:04.151Z,7.42
2022-10-04T00:36:38.228Z,7.39
2022-10-04T00:39:05.180Z,7.36
2022-10-04T00:41:57.657Z,7.38
2022-10-04T00:44:38.727Z,7.41
2022-10-04T00:47:23.872Z,7.17
2022-10-04T00:49:56.400Z,7.25
2022-10-04T00:52:29.006Z,7.44
2022-10-04T00:54:58.054Z,7.43
2022-10-04T00:57:46.883Z,7.43
2022-10-04T01:00:19.189Z,7.44
2022-10-04T01:02:53.332Z,7.36
2022-10-04T01:05:33.204Z,7.23
2022-10-04T01:08:10.992Z,7.31
2022-10-04T01:10:47.341Z,7.30
2022-10-04T01:13:21.645Z,7.03
2022-10-04T01:15:59.383Z,7.22
2022-10-04T01:18:26.384Z,7.17
2022-10-04T01:21:02.613Z,7.22
2022-10-04T01:23:51.624Z,7.07
2022-10-04T01:26:24.658Z,7.14
2022-10-04T01:28:52.284Z,6.83
2022-10-04T01:31:19.599Z,6.88
2022-10-04T01:33:46.673Z,6.96
2022-10-04T01:36:13.763Z,7.04
2022-10-04T01:38:40.790Z,7.04
2022-10-04T01:41:10.117Z,7.10
2022-10-04T01:43:40.971Z,7.08
2022-10-04T01:46:16.584Z,6.83
2022-10-04T01:48:45.760Z,7.04
2022-10-04T01:51:30.560Z,7.03
2022-10-04T01:54:13.458Z,7.14
2022-10-04T01:56:46.818Z,7.08
2022-10-04T01:59:19.773Z,7.05
2022-10-04T02:01:56.538Z,7.00
2022-10-04T02:04:28.972Z,6.96
2022-10-04T02:06:59.126Z,6.95
2022-10-04T02:09:33.720Z,6.67
2022-10-04T02:12:01.759Z,6.89
2022-10-04T02:14:35.641Z,6.87
2022-10-04T02:17:07.929Z,6.95
2022-10-04T02:19:37.678Z,6.62
2022-10-04T02:22:07.257Z,7.01
2022-10-04T02:24:37.499Z,6.97
2022-10-04T02:27:06.154Z,6.85
2022-10-04T02:29:33.443Z,6.92
2022-10-04T02:32:19.514Z,6.96
2022-10-04T02:34:47.730Z,6.88
2022-10-04T02:37:15.355Z,6.72
2022-10-04T02:40:00.491Z,6.67
2022-10-04T02:42:39.370Z,6.88
2022-10-04T02:45:32.676Z,6.74
2022-10-04T02:48:11.447Z,6.61
2022-10-04T02:50:53.338Z,6.93
2022-10-04T02:53:38.218Z,6.69
2022-10-04T02:56:05.787Z,6.85
2022-10-04T02:58:37.723Z,6.75
2022-10-04T03:01:05.041Z,7.00
2022-10-04T03:03:36.920Z,7.08
2022-10-04T03:06:05.849Z,6.99
2022-10-04T03:08:43.953Z,7.00
2022-10-04T03:11:13.935Z,6.91
2022-10-04T03:13:46.653Z,6.81
2022-10-04T03:16:14.831Z,6.85
2022-10-04T03:18:44.310Z,6.83
2022-10-04T03:21:14.757Z,6.86
2022-10-04T03:23:43.118Z,6.91
2022-10-04T03:26:29.921Z,6.67
2022-10-04T03:28:58.758Z,6.97
2022-10-04T03:31:28.470Z,6.78
2022-10-04T03:33:57.764Z,7.00
2022-10-04T03:36:27.147Z,7.02
2022-10-04T03:38:57.334Z,7.02
2022-10-04T03:41:25.915Z,6.96
2022-10-04T03:43:54.821Z,6.80
2022-10-04T03:46:23.357Z,6.96
2022-10-04T03:48:53.365Z,7.05
2022-10-04T03:51:22.960Z,6.86
2022-10-04T03:53:53.717Z,7.14
2022-10-04T03:56:26.696Z,7.00
2022-10-04T03:58:54.985Z,7.01
2022-10-04T04:01:47.148Z,7.01
2022-10-04T04:04:25.700Z,7.15
2022-10-04T04:07:10.513Z,6.85
2022-10-04T04:10:03.517Z,7.14
2022-10-04T04:12:43.824Z,7.17
2022-10-04T04:15:13.305Z,7.12
2022-10-04T04:17:46.733Z,6.95
2022-10-04T04:20:31.783Z,7.00
2022-10-04T04:23:33.008Z,7.01
2022-10-04T04:26:31.365Z,6.98
2022-10-04T04:29:08.080Z,6.80
2022-10-04T04:31:42.393Z,6.83
2022-10-04T04:34:30.969Z,6.98
2022-10-04T04:37:00.716Z,6.73
2022-10-04T04:39:39.864Z,6.81
2022-10-04T04:42:29.500Z,7.02
2022-10-04T04:45:00.779Z,6.84
2022-10-04T04:47:40.085Z,7.16
2022-10-04T04:50:16.889Z,7.02
2022-10-04T04:52:55.401Z,6.79
2022-10-04T04:55:36.674Z,7.02
2022-10-04T04:58:43.366Z,7.14
2022-10-04T05:01:23.298Z,7.17
2022-10-04T05:04:26.269Z,7.16
2022-10-04T05:07:06.298Z,7.15
2022-10-04T05:09:38.401Z,7.12
2022-10-04T05:12:15.845Z,7.11
2022-10-04T05:14:52.161Z,6.88
2022-10-04T05:17:20.963Z,7.05
2022-10-04T05:19:48.193Z,7.03
2022-10-04T05:22:20.585Z,6.65
2022-10-04T05:24:52.779Z,6.83
2022-10-04T05:27:29.208Z,6.88
2022-10-04T05:30:08.437Z,6.92
2022-10-04T05:32:47.737Z,7.00
2022-10-04T05:35:16.966Z,7.02
2022-10-04T05:38:28.902Z,6.60
2022-10-04T05:41:15.920Z,6.62
2022-10-04T05:43:49.992Z,6.70
2022-10-04T05:46:30.380Z,6.42
2022-10-04T05:49:18.135Z,6.45
2022-10-04T05:52:01.947Z,6.73
2022-10-04T05:54:32.765Z,6.68
2022-10-04T05:57:30.763Z,6.71
2022-10-04T06:00:42.595Z,6.81
2022-10-04T06:03:16.309Z,6.84
2022-10-04T06:05:54.887Z,6.90
2022-10-04T06:08:21.820Z,6.94
2022-10-04T06:11:03.137Z,6.72
2022-10-04T06:13:59.902Z,6.97
2022-10-04T06:16:45.626Z,7.08
2022-10-04T06:19:44.295Z,7.12
2022-10-04T06:22:16.576Z,7.40
2022-10-04T06:24:49.997Z,7.18
2022-10-04T06:27:19.952Z,7.28
2022-10-04T06:30:00.316Z,7.34
2022-10-04T06:32:59.443Z,7.41
2022-10-04T06:35:33.894Z,7.47
2022-10-04T06:38:32.753Z,7.55
2022-10-04T06:41:14.745Z,7.55
2022-10-04T06:43:50.755Z,7.69
2022-10-04T06:46:45.168Z,7.81
2022-10-04T06:49:49.990Z,7.99
2022-10-04T06:52:25.994Z,7.98
2022-10-04T06:55:01.807Z,7.88
2022-10-04T06:57:43.965Z,7.90
2022-10-04T07:00:23.353Z,8.11
2022-10-04T07:03:04.164Z,8.23
2022-10-04T07:05:55.324Z,8.29
2022-10-04T07:08:36.663Z,8.20
2022-10-04T07:11:13.588Z,8.40
2022-10-04T07:13:49.358Z,8.76
2022-10-04T07:16:16.461Z,8.69
2022-10-04T07:18:49.475Z,8.75
2022-10-04T07:21:18.265Z,8.84
2022-10-04T07:23:57.457Z,8.93
2022-10-04T07:26:35.883Z,9.23
2022-10-04T07:29:22.095Z,9.33
2022-10-04T07:31:54.169Z,9.61
2022-10-04T07:34:28.718Z,9.47
2022-10-04T07:36:59.977Z,9.90
2022-10-04T07:40:06.709Z,9.88
2022-10-04T07:42:47.168Z,10.09
2022-10-04T07:45:29.769Z,10.00
2022-10-04T07:48:09.042Z,10.54
2022-10-04T07:50:45.860Z,10.67
2022-10-04T07:53:22.130Z,10.88
2022-10-04T07:56:13.440Z,10.84
2022-10-04T07:59:12.665Z,11.16
2022-10-04T08:01:47.867Z,11.24
2022-10-04T08:04:35.307Z,11.43
2022-10-04T08:07:07.222Z,11.51
2022-10-04T08:09:41.921Z,11.56
2022-10-04T08:12:16.699Z,11.77
2022-10-04T08:14:55.888Z,11.80
2022-10-04T08:17:51.124Z,11.96
2022-10-04T08:20:29.943Z,12.13
2022-10-04T08:23:28.059Z,12.28
2022-10-04T08:26:40.842Z,12.39
2022-10-04T08:29:43.985Z,12.32
2022-10-04T08:32:29.187Z,12.47
2022-10-04T08:35:27.944Z,12.47
2022-10-04T08:38:17.270Z,12.83
2022-10-04T08:41:06.616Z,13.06
2022-10-04T08:43:52.473Z,13.21
2022-10-04T08:46:47.775Z,13.34
2022-10-04T08:49:39.194Z,13.47
2022-10-04T08:52:21.666Z,13.55
2022-10-04T08:55:15.380Z,13.65
2022-10-04T08:58:13.982Z,13.67
2022-10-04T09:01:02.359Z,13.86
2022-10-04T09:04:01.352Z,13.84
2022-10-04T09:06:46.203Z,13.77
2022-10-04T09:09:25.260Z,13.70
2022-10-04T09:12:12.395Z,13.68
2022-10-04T09:15:02.079Z,13.80
2022-10-04T09:17:53.120Z,13.94
2022-10-04T09:20:49.688Z,14.11
2022-10-04T09:23:32.067Z,14.42
2022-10-04T09:26:14.317Z,14.46
2022-10-04T09:28:49.295Z,14.50
2022-10-04T09:31:44.317Z,14.30
2022-10-04T09:34:57.813Z,14.38
2022-10-04T09:37:43.565Z,14.57
2022-10-04T09:40:29.252Z,14.66
2022-10-04T09:43:20.737Z,14.67
2022-10-04T09:46:16.169Z,14.67
2022-10-04T09:49:01.503Z,14.55
2022-10-04T09:51:49.025Z,14.60
2022-10-04T09:54:56.689Z,14.84
2022-10-04T09:57:43.848Z,14.98
2022-10-04T10:00:26.360Z,15.01
2022-10-04T10:03:16.260Z,15.20
2022-10-04T10:06:03.232Z,15.28
2022-10-04T10:08:45.920Z,15.33
2022-10-04T10:11:43.575Z,15.49
2022-10-04T10:14:35.274Z,15.62
2022-10-04T10:17:22.452Z,15.65
2022-10-04T10:20:23.040Z,15.87
2022-10-04T10:23:14.807Z,15.99
2022-10-04T10:25:48.216Z,15.94
2022-10-04T10:28:33.773Z,16.03
2022-10-04T10:31:09.563Z,16.09
2022-10-04T10:34:01.430Z,16.06
2022-10-04T10:36:37.142Z,15.99
2022-10-04T10:39:52.104Z,15.85
2022-10-04T10:42:55.613Z,16.01
2022-10-04T10:46:03.168Z,16.25
2022-10-04T10:49:01.938Z,16.13
2022-10-04T10:52:06.426Z,16.36
2022-10-04T10:54:56.972Z,16.38
2022-10-04T10:58:01.225Z,16.38
2022-10-04T11:00:53.084Z,16.42
2022-10-04T11:03:38.847Z,16.46
2022-10-04T11:06:16.230Z,16.66
2022-10-04T11:08:52.173Z,16.63
2022-10-04T11:11:56.069Z,16.47
2022-10-04T11:14:35.220Z,16.55
2022-10-04T11:17:27.439Z,16.92
2022-10-04T11:20:32.009Z,16.85
2022-10-04T11:23:08.890Z,17.03
2022-10-04T11:26:08.723Z,17.01
2022-10-04T11:28:46.490Z,17.09
2022-10-04T11:31:40.679Z,16.97
2022-10-04T11:34:26.356Z,17.16
2022-10-04T11:37:12.969Z,17.26
2022-10-04T11:39:52.145Z,17.23
2022-10-04T11:42:26.739Z,17.17
2022-10-04T11:45:33.985Z,17.14
2022-10-04T11:48:35.096Z,17.32
2022-10-04T11:51:31.758Z,17.31
2022-10-04T11:54:34.381Z,17.38
2022-10-04T11:57:18.364Z,17.06
2022-10-04T12:00:14.229Z,17.48
2022-10-04T12:03:02.686Z,17.55
2022-10-04T12:05:51.617Z,17.55
2022-10-04T12:08:22.798Z,17.43
2022-10-04T12:11:27.108Z,17.75
2022-10-04T12:14:17.402Z,17.87
2022-10-04T12:16:56.599Z,17.85
2022-10-04T12:19:39.597Z,17.63
2022-10-04T12:22:15.938Z,17.91
2022-10-04T12:25:10.431Z,17.89
2022-10-04T12:28:15.961Z,17.89
2022-10-04T12:30:46.643Z,18.03
2022-10-04T12:33:23.625Z,18.28
2022-10-04T12:36:02.991Z,18.25
2022-10-04T12:38:39.001Z,18.20
2022-10-04T12:41:24.364Z,18.22
2022-10-04T12:44:16.496Z,18.17
2022-10-04T12:46:52.987Z,18.16
2022-10-04T12:50:04.295Z,18.20
2022-10-04T12:52:45.269Z,18.17
2022-10-04T12:55:41.433Z,18.37
2022-10-04T12:58:18.869Z,18.20
2022-10-04T13:00:49.030Z,18.08
2022-10-04T13:03:54.924Z,18.23
2022-10-04T13:06:31.144Z,18.16
2022-10-04T13:09:16.746Z,17.98
2022-10-04T13:11:43.734Z,18.20
2022-10-04T13:14:29.333Z,18.28
2022-10-04T13:20:25.899Z,18.17
2022-10-04T13:23:23.920Z,18.08
2022-10-04T13:25:52.440Z,18.15
2022-10-04T13:28:33.579Z,18.22
2022-10-04T13:31:24.429Z,18.19
2022-10-04T13:34:46.052Z,18.18
2022-10-04T13:37:37.958Z,18.19
2022-10-04T13:40:21.334Z,18.15
2022-10-04T13:43:00.904Z,18.13
2022-10-04T13:45:58.848Z,18.08
2022-10-04T13:48:44.394Z,18.15
2022-10-04T13:51:28.021Z,18.06
2022-10-04T13:54:32.200Z,18.16
2022-10-04T13:57:14.294Z,18.24
2022-10-04T13:59:52.297Z,18.15
2022-10-04T14:02:32.837Z,18.01
2022-10-04T14:05:31.806Z,18.25
2022-10-04T14:08:33.164Z,18.23
2022-10-04T14:11:43.650Z,18.36
2022-10-04T14:14:43.716Z,18.29
2022-10-04T14:17:25.817Z,18.31
2022-10-04T14:20:11.299Z,18.30
2022-10-04T14:23:24.116Z,18.18
2022-10-04T14:26:08.014Z,18.25
2022-10-04T14:28:47.564Z,18.06
2022-10-04T14:31:19.904Z,18.11
2022-10-04T14:34:06.311Z,18.03
2022-10-04T14:36:33.860Z,18.08
2022-10-04T14:39:07.015Z,18.12
2022-10-04T14:41:54.049Z,18.04
2022-10-04T14:44:36.376Z,17.89
2022-10-04T14:47:15.412Z,17.94
2022-10-04T14:50:01.111Z,17.93
2022-10-04T14:52:53.906Z,17.98
2022-10-04T14:55:38.224Z,17.85
2022-10-04T14:58:26.333Z,17.94
2022-10-04T15:00:56.958Z,17.95
2022-10-04T15:03:30.828Z,17.92
2022-10-04T15:06:00.124Z,17.82
2022-10-04T15:09:04.166Z,17.75
2022-10-04T15:12:21.444Z,17.87
2022-10-04T15:15:11.915Z,17.81
2022-10-04T15:17:48.049Z,17.80
2022-10-04T15:20:39.656Z,17.81
2022-10-04T15:23:26.694Z,17.70
2022-10-04T15:26:13.747Z,17.68
2022-10-04T15:28:43.898Z,17.70
2022-10-04T15:31:23.072Z,17.67
2022-10-04T15:34:01.735Z,17.59
2022-10-04T15:36:49.649Z,17.65
2022-10-04T15:39:16.635Z,17.54
2022-10-04T15:42:33.870Z,17.58
2022-10-04T15:45:17.296Z,17.56
2022-10-04T15:48:23.972Z,17.48
2022-10-04T15:51:14.997Z,17.41
2022-10-04T15:54:06.729Z,17.39
2022-10-04T15:56:47.417Z,17.24
2022-10-04T15:59:53.370Z,16.94
2022-10-04T16:02:42.153Z,17.25
2022-10-04T16:05:21.211Z,17.21
2022-10-04T16:08:29.403Z,17.12
2022-10-04T16:11:29.083Z,16.97
2022-10-04T16:14:22.193Z,16.95
2022-10-04T16:17:24.681Z,16.81
2022-10-04T16:20:09.892Z,16.78
2022-10-04T16:22:38.210Z,16.73
2022-10-04T16:25:36.735Z,16.61
2022-10-04T16:28:23.165Z,16.49
2022-10-04T16:31:20.332Z,16.43
2022-10-04T16:34:00.857Z,16.25
2022-10-04T16:36:52.353Z,16.21
2022-10-04T16:40:02.443Z,16.13
2022-10-04T16:42:47.626Z,16.05
2022-10-04T16:45:45.500Z,15.85
2022-10-04T16:48:33.526Z,15.69
2022-10-04T16:51:18.320Z,15.73
2022-10-04T16:53:53.201Z,15.68
2022-10-04T16:56:29.997Z,15.22
2022-10-04T16:59:05.350Z,15.25
2022-10-04T17:02:10.660Z,15.24
2022-10-04T17:04:56.038Z,15.09
2022-10-04T17:07:43.023Z,15.02
2022-10-04T17:10:37.261Z,14.76
2022-10-04T17:13:23.413Z,14.67
2022-10-04T17:16:00.742Z,14.59
2022-10-04T17:18:51.035Z,14.44
2022-10-04T17:21:37.111Z,14.33
2022-10-04T17:24:23.845Z,14.21
2022-10-04T17:27:16.821Z,14.02
2022-10-04T17:30:23.894Z,13.97
2022-10-04T17:33:11.724Z,13.83
2022-10-04T17:36:14.110Z,13.85
2022-10-04T17:38:47.110Z,13.85
2022-10-04T17:41:35.832Z,13.77
2022-10-04T17:44:27.713Z,13.82
2022-10-04T17:47:14.525Z,13.73
2022-10-04T17:50:31.444Z,13.59
2022-10-04T17:53:23.816Z,13.47
2022-10-04T17:56:00.511Z,13.40
2022-10-04T17:58:51.175Z,13.35
2022-10-04T18:01:50.727Z,13.26
2022-10-04T18:04:28.985Z,13.31
2022-10-04T18:07:16.379Z,12.93
2022-10-04T18:09:47.365Z,13.09
2022-10-04T18:12:29.581Z,13.04
2022-10-04T18:15:17.261Z,13.14
2022-10-04T18:17:48.936Z,12.81
2022-10-04T18:20:37.162Z,12.82
2022-10-04T18:23:24.680Z,12.85
2022-10-04T18:25:57.103Z,12.56
2022-10-04T18:28:24.971Z,12.60
2022-10-04T18:30:58.699Z,12.40
2022-10-04T18:33:33.190Z,12.48
2022-10-04T18:36:14.338Z,12.60
2022-10-04T18:38:43.503Z,12.42
2022-10-04T18:41:23.073Z,12.35
2022-10-04T18:44:11.493Z,12.42
2022-10-04T18:46:40.675Z,12.46
2022-10-04T18:49:20.959Z,12.32
2022-10-04T18:52:13.151Z,12.27
2022-10-04T18:55:02.280Z,12.13
2022-10-04T18:57:55.196Z,12.04
2022-10-04T19:00:41.856Z,11.81
2022-10-04T19:03:20.535Z,11.87
2022-10-04T19:06:24.510Z,11.76
2022-10-04T19:09:22.672Z,11.70
2022-10-04T19:12:02.368Z,11.51
2022-10-04T19:14:36.612Z,11.62
2022-10-04T19:17:54.153Z,11.80
2022-10-04T19:20:58.716Z,11.84
2022-10-04T19:23:36.443Z,11.79
2022-10-04T19:26:33.199Z,11.65
2022-10-04T19:29:31.322Z,11.72
2022-10-04T19:32:03.938Z,11.73
2022-10-04T19:34:39.758Z,11.77
2022-10-04T19:37:30.478Z,11.51
2022-10-04T19:40:15.322Z,11.55
2022-10-04T19:42:52.024Z,11.50
2022-10-04T19:45:54.281Z,11.33
2022-10-04T19:48:26.301Z,11.26
2022-10-04T19:50:56.686Z,11.24
2022-10-04T19:53:41.983Z,11.00
2022-10-04T19:56:20.550Z,11.23
2022-10-04T19:58:56.002Z,11.24
2022-10-04T20:01:25.745Z,10.97
2022-10-04T20:04:12.102Z,10.99
2022-10-04T20:06:48.963Z,11.09
2022-10-04T20:09:51.274Z,10.99
2022-10-04T20:12:38.333Z,10.85
2022-10-04T20:15:17.238Z,11.06
2022-10-04T20:17:45.717Z,11.14
2022-10-04T20:20:38.918Z,11.14
2022-10-04T20:23:07.607Z,11.10
2022-10-04T20:25:43.742Z,10.86
2022-10-04T20:28:30.850Z,10.90
2022-10-04T20:30:59.759Z,10.89
2022-10-04T20:33:33.037Z,10.77
2022-10-04T20:36:04.909Z,10.62
2022-10-04T20:39:03.329Z,10.79
2022-10-04T20:41:50.244Z,10.91
2022-10-04T20:44:55.273Z,10.70
2022-10-04T20:47:33.684Z,10.55
2022-10-04T20:50:02.335Z,10.36
2022-10-04T20:52:31.894Z,10.60
2022-10-04T20:55:02.934Z,10.57
2022-10-04T20:57:30.308Z,10.57
2022-10-04T20:59:59.286Z,10.64
2022-10-04T21:02:28.616Z,10.68
2022-10-04T21:05:12.246Z,10.31
2022-10-04T21:07:39.260Z,10.37
2022-10-04T21:10:15.653Z,10.32
2022-10-04T21:12:42.963Z,10.40
2022-10-04T21:15:15.780Z,10.51
2022-10-04T21:17:43.924Z,10.56
2022-10-04T21:20:34.947Z,10.43
2022-10-04T21:23:17.644Z,10.25
2022-10-04T21:25:44.783Z,10.29
2022-10-04T21:28:32.082Z,10.27
2022-10-04T21:31:00.225Z,10.01
2022-10-04T21:33:27.286Z,9.98
2022-10-04T21:35:54.362Z,9.99
2022-10-04T21:38:21.409Z,9.91
2022-10-04T21:40:48.486Z,9.87
2022-10-04T21:43:15.558Z,9.78
2022-10-04T21:45:42.648Z,9.50
2022-10-04T21:48:09.666Z,9.63
2022-10-04T21:50:36.766Z,9.36
2022-10-04T21:53:03.781Z,9.61
2022-10-04T21:55:30.748Z,9.66
2022-10-04T21:57:57.785Z,9.42
2022-10-04T22:00:24.977Z,9.54
2022-10-04T22:02:52.072Z,9.24
2022-10-04T22:05:19.118Z,9.36
2022-10-04T22:07:46.156Z,9.29
2022-10-04T22:10:13.127Z,9.58
2022-10-04T22:12:40.189Z,9.69
2022-10-04T22:15:07.516Z,9.67
2022-10-04T22:17:34.590Z,9.68
2022-10-04T22:20:01.589Z,9.84
2022-10-04T22:22:30.934Z,9.77
2022-10-04T22:24:58.613Z,9.78
2022-10-04T22:27:26.992Z,9.89
2022-10-04T22:29:56.214Z,9.84
2022-10-04T22:32:28.043Z,9.58
2022-10-04T22:35:01.776Z,9.63
2022-10-04T22:37:31.014Z,9.54
2022-10-04T22:39:58.279Z,9.46
2022-10-04T22:42:31.250Z,9.44
2022-10-04T22:45:01.813Z,9.43
2022-10-04T22:47:31.537Z,9.41
2022-10-04T22:49:58.649Z,9.25
2022-10-04T22:52:28.131Z,9.17
2022-10-04T22:54:57.788Z,9.06
2022-10-04T22:57:24.978Z,9.06
2022-10-04T22:59:52.786Z,8.82
2022-10-04T23:02:28.809Z,9.06
2022-10-04T23:05:01.036Z,9.09
2022-10-04T23:07:28.058Z,9.28
2022-10-04T23:09:55.229Z,9.17
2022-10-04T23:12:22.236Z,9.15
2022-10-04T23:14:49.265Z,9.08
2022-10-04T23:17:27.554Z,9.04
2022-10-04T23:20:01.570Z,8.99
2022-10-04T23:22:30.297Z,8.81
2022-10-04T23:24:57.569Z,8.91
2022-10-04T23:27:24.732Z,9.21
2022-10-04T23:30:01.633Z,9.42
2022-10-04T23:32:30.932Z,9.34
2022-10-04T23:34:59.537Z,9.26
2022-10-04T23:37:30.829Z,9.23
2022-10-04T23:39:58.784Z,9.53
2022-10-04T23:42:32.181Z,9.08
2022-10-04T23:45:01.391Z,9.18
2022-10-04T23:47:36.827Z,9.19
2022-10-04T23:50:21.899Z,9.31
2022-10-04T23:52:51.001Z,9.22
2022-10-04T23:55:22.193Z,9.19
2022-10-04T23:57:49.861Z,9.03
